KSCK/SCK METAR and TAF weather

Enter ICAO airport designator
Station Type Date Time Source
KSCK METAR 2019/06/26 05:55 UTC NOAA

KSCK 260555Z AUTO 26013KT 10SM CLR 20/07 A2985 RMK AO2 SLP106 T02000067 10333 20194 53021


Station Type Date Time Source
KSCK Decoded METAR 2019/06/26 05:55 UTC NOAA

STOCKTON METROPOLITAN AIRPORT , CA, United States (KSCK) 37-54N 121-14W 10M
Jun 26, 2019 - 01:55 AM EDT / 2019.06.26 0555 UTC
Wind: from the W (260 degrees) at 15 MPH (13 KT):0
Visibility: 10 mile(s):0
Sky conditions: clear
Temperature: 68.0 F (20.0 C)
Dew Point: 44.1 F (6.7 C)
Relative Humidity: 41%
Pressure (altimeter): 29.85 in. Hg (1010 hPa)
Pressure tendency: 0.06 inches (2.1 hPa) higher than three hours ago
ob: KSCK 260555Z AUTO 26013KT 10SM CLR 20/07 A2985 RMK AO2 SLP106 T02000067 10333 20194 53021
cycle: 6

Station Type Date Time Source
KSCK TAF 2019/06/26 06:22 UTC NOAA

TAF KSCK 260520Z 2606/2706 25011KT P6SM FEW250
FM261700 28008KT P6SM FEW250
FM262100 29014G20KT P6SM FEW250
FM270300 26014KT P6SM SKC

Example: see airport list